createdAt,value
2022-11-05T00:02:33.702Z,8.07
2022-11-05T00:05:53.195Z,8.04
2022-11-05T00:08:38.346Z,7.98
2022-11-05T00:11:18.313Z,7.91
2022-11-05T00:14:04.821Z,7.89
2022-11-05T00:16:46.546Z,7.88
2022-11-05T00:19:13.582Z,7.81
2022-11-05T00:21:58.674Z,7.78
2022-11-05T00:24:45.875Z,7.74
2022-11-05T00:27:12.427Z,7.71
2022-11-05T00:29:39.023Z,7.65
2022-11-05T00:32:21.392Z,7.64
2022-11-05T00:35:03.900Z,7.60
2022-11-05T00:37:31.059Z,7.57
2022-11-05T00:39:58.001Z,7.53
2022-11-05T00:42:43.477Z,7.49
2022-11-05T00:45:10.449Z,7.46
2022-11-05T00:47:58.146Z,7.44
2022-11-05T00:50:25.172Z,7.42
2022-11-05T00:52:57.368Z,7.30
2022-11-05T00:55:33.508Z,7.21
2022-11-05T00:58:01.504Z,7.21
2022-11-05T01:00:30.314Z,7.21
2022-11-05T01:03:02.193Z,7.19
2022-11-05T01:05:31.703Z,7.19
2022-11-05T01:07:59.118Z,7.24
2022-11-05T01:10:26.148Z,7.24
2022-11-05T01:12:54.188Z,7.24
2022-11-05T01:15:21.417Z,7.23
2022-11-05T01:17:54.683Z,7.22
2022-11-05T01:20:21.595Z,7.20
2022-11-05T01:22:48.671Z,7.19
2022-11-05T01:25:15.508Z,7.17
2022-11-05T01:27:45.933Z,7.16
2022-11-05T01:30:14.312Z,7.15
2022-11-05T01:32:47.870Z,7.13
2022-11-05T01:35:17.958Z,7.08
2022-11-05T01:37:51.196Z,7.05
2022-11-05T01:40:21.505Z,7.04
2022-11-05T01:42:50.885Z,7.02
2022-11-05T01:45:21.872Z,7.00
2022-11-05T01:48:32.464Z,6.99
2022-11-05T01:51:07.187Z,6.94
2022-11-05T01:53:51.355Z,6.91
2022-11-05T01:56:30.302Z,6.88
2022-11-05T01:59:07.175Z,6.85
2022-11-05T02:01:34.076Z,6.84
2022-11-05T02:04:04.565Z,6.81
2022-11-05T02:06:35.060Z,6.81
2022-11-05T02:09:21.033Z,6.79
2022-11-05T02:11:48.802Z,6.77
2022-11-05T02:14:15.544Z,6.77
2022-11-05T02:16:58.507Z,6.76
2022-11-05T02:20:04.906Z,6.77
2022-11-05T02:22:35.523Z,6.76
2022-11-05T02:25:58.918Z,6.74
2022-11-05T02:29:03.180Z,6.75
2022-11-05T02:31:55.469Z,6.73
2022-11-05T02:35:09.594Z,6.72
2022-11-05T02:37:50.670Z,6.72
2022-11-05T02:40:32.604Z,6.72
2022-11-05T02:43:29.343Z,6.66
2022-11-05T02:46:18.545Z,6.66
2022-11-05T02:49:08.902Z,6.67
2022-11-05T02:51:44.221Z,6.66
2022-11-05T02:54:32.206Z,6.65
2022-11-05T02:57:05.541Z,6.65
2022-11-05T02:59:32.043Z,6.65
2022-11-05T03:02:00.930Z,6.62
2022-11-05T03:04:27.969Z,6.60
2022-11-05T03:07:19.411Z,6.59
2022-11-05T03:10:04.746Z,6.58
2022-11-05T03:12:59.642Z,6.57
2022-11-05T03:15:39.383Z,6.55
2022-11-05T03:18:10.536Z,6.54
2022-11-05T03:21:05.666Z,6.54
2022-11-05T03:23:50.822Z,6.49
2022-11-05T03:26:37.527Z,6.49
2022-11-05T03:29:16.634Z,6.48
2022-11-05T03:31:47.550Z,6.46
2022-11-05T03:34:17.545Z,6.44
2022-11-05T03:36:49.991Z,6.40
2022-11-05T03:39:22.165Z,6.37
2022-11-05T03:41:52.103Z,6.39
2022-11-05T03:44:27.915Z,6.39
2022-11-05T03:47:02.624Z,6.37
2022-11-05T03:49:38.196Z,6.32
2022-11-05T03:52:11.043Z,6.33
2022-11-05T03:54:37.918Z,6.31
2022-11-05T03:57:14.590Z,6.29
2022-11-05T03:59:48.473Z,6.27
2022-11-05T04:02:18.511Z,6.23
2022-11-05T04:04:45.607Z,6.23
2022-11-05T04:07:31.924Z,6.24
2022-11-05T04:10:17.036Z,6.27
2022-11-05T04:13:02.198Z,6.23
2022-11-05T04:15:51.456Z,6.24
2022-11-05T04:18:18.061Z,6.22
2022-11-05T04:21:06.955Z,6.21
2022-11-05T04:23:51.980Z,6.19
2022-11-05T04:26:23.400Z,6.20
2022-11-05T04:29:09.482Z,6.20
2022-11-05T04:31:36.386Z,6.24
2022-11-05T04:34:05.188Z,6.30
2022-11-05T04:36:31.852Z,6.35
2022-11-05T04:38:58.476Z,6.36
2022-11-05T04:41:25.469Z,6.37
2022-11-05T04:43:52.070Z,6.37
2022-11-05T04:46:18.738Z,6.40
2022-11-05T04:48:45.335Z,6.45
2022-11-05T04:51:11.850Z,6.47
2022-11-05T04:53:38.315Z,6.47
2022-11-05T04:56:24.802Z,6.48
2022-11-05T04:58:51.489Z,6.47
2022-11-05T05:01:20.811Z,6.46
2022-11-05T05:03:48.485Z,6.49
2022-11-05T05:06:15.700Z,6.50
2022-11-05T05:08:42.621Z,6.57
2022-11-05T05:11:12.155Z,6.59
2022-11-05T05:13:38.623Z,6.62
2022-11-05T05:16:07.512Z,6.62
2022-11-05T05:18:34.648Z,6.64
2022-11-05T05:21:20.415Z,6.64
2022-11-05T05:23:48.598Z,6.67
2022-11-05T05:26:16.286Z,6.70
2022-11-05T05:28:45.873Z,6.73
2022-11-05T05:31:12.612Z,6.76
2022-11-05T05:33:39.012Z,6.80
2022-11-05T05:36:11.139Z,6.85
2022-11-05T05:38:41.096Z,6.83
2022-11-05T05:41:07.566Z,6.84
2022-11-05T05:43:34.204Z,6.83
2022-11-05T05:46:08.801Z,6.78
2022-11-05T05:48:35.360Z,6.77
2022-11-05T05:51:36.925Z,6.76
2022-11-05T05:54:03.691Z,6.74
2022-11-05T05:56:47.468Z,6.72
2022-11-05T05:59:32.714Z,6.69
2022-11-05T06:02:05.315Z,6.69
2022-11-05T06:04:31.845Z,6.68
2022-11-05T06:06:58.349Z,6.64
2022-11-05T06:09:25.875Z,6.62
2022-11-05T06:11:52.377Z,6.59
2022-11-05T06:14:22.096Z,6.56
2022-11-05T06:16:48.756Z,6.53
2022-11-05T06:19:15.214Z,6.49
2022-11-05T06:21:45.051Z,6.46
2022-11-05T06:24:11.517Z,6.45
2022-11-05T06:26:42.787Z,6.43
2022-11-05T06:29:11.315Z,6.41
2022-11-05T06:31:37.776Z,6.41
2022-11-05T06:34:04.234Z,6.40
2022-11-05T06:36:42.851Z,6.38
2022-11-05T06:39:13.049Z,6.35
2022-11-05T06:42:04.041Z,6.32
2022-11-05T06:44:26.067Z,6.35
2022-11-05T06:46:52.863Z,6.40
2022-11-05T06:49:24.650Z,6.43
2022-11-05T06:51:52.113Z,6.46
2022-11-05T06:54:18.666Z,6.50
2022-11-05T06:57:00.530Z,6.54
2022-11-05T06:59:27.029Z,6.53
2022-11-05T07:01:55.951Z,6.54
2022-11-05T07:04:22.521Z,6.53
2022-11-05T07:06:49.072Z,6.54
2022-11-05T07:09:15.600Z,6.56
2022-11-05T07:11:50.332Z,6.61
2022-11-05T07:14:25.025Z,6.64
2022-11-05T07:16:51.501Z,6.62
2022-11-05T07:19:17.993Z,6.64
2022-11-05T07:21:45.924Z,6.67
2022-11-05T07:24:14.408Z,6.68
2022-11-05T07:26:44.083Z,6.70
2022-11-05T07:29:10.540Z,6.71
2022-11-05T07:31:52.389Z,6.74
2022-11-05T07:34:18.890Z,6.75
2022-11-05T07:36:45.343Z,6.79
2022-11-05T07:39:13.795Z,6.82
2022-11-05T07:41:40.344Z,6.84
2022-11-05T07:44:33.970Z,6.87
2022-11-05T07:47:00.380Z,6.90
2022-11-05T07:49:37.144Z,6.95
2022-11-05T07:52:31.903Z,6.98
2022-11-05T07:54:58.505Z,7.01
2022-11-05T07:57:24.964Z,7.05
2022-11-05T08:00:23.356Z,7.09
2022-11-05T08:07:16.374Z,7.18
2022-11-05T08:09:42.774Z,7.21
2022-11-05T08:12:33.772Z,7.26
2022-11-05T08:15:02.275Z,7.33
2022-11-05T08:18:23.038Z,7.39
2022-11-05T08:20:49.497Z,7.49
2022-11-05T08:23:16.272Z,7.55
2022-11-05T08:25:42.880Z,7.67
2022-11-05T08:28:12.980Z,7.75
2022-11-05T08:30:39.710Z,7.85
2022-11-05T08:33:12.618Z,8.01
2022-11-05T08:35:41.033Z,8.16
2022-11-05T08:38:10.332Z,8.29
2022-11-05T08:40:44.790Z,8.57
2022-11-05T08:43:16.417Z,8.78
2022-11-05T08:45:43.073Z,8.91
2022-11-05T08:48:18.600Z,9.10
2022-11-05T08:51:00.268Z,9.23
2022-11-05T08:53:26.805Z,9.28
2022-11-05T08:55:57.868Z,9.31
2022-11-05T08:58:25.362Z,9.25
2022-11-05T09:00:54.237Z,9.24
2022-11-05T09:03:21.067Z,9.14
2022-11-05T09:05:47.917Z,9.09
2022-11-05T09:08:19.045Z,9.03
2022-11-05T09:10:47.309Z,9.01
2022-11-05T09:13:18.660Z,9.00
2022-11-05T09:15:47.549Z,8.96
2022-11-05T09:18:16.251Z,8.88
2022-11-05T09:20:44.855Z,8.88
2022-11-05T09:23:25.459Z,8.89
2022-11-05T09:26:11.042Z,8.84
2022-11-05T09:28:38.301Z,8.85
2022-11-05T09:31:11.036Z,8.89
2022-11-05T09:33:43.764Z,8.86
2022-11-05T09:36:37.082Z,8.89
2022-11-05T09:39:03.767Z,8.92
2022-11-05T09:41:35.947Z,8.97
2022-11-05T09:44:13.700Z,9.03
2022-11-05T09:46:54.050Z,9.09
2022-11-05T09:49:28.077Z,9.10
2022-11-05T09:52:28.748Z,9.09
2022-11-05T09:54:56.245Z,9.12
2022-11-05T09:57:48.939Z,9.15
2022-11-05T10:00:19.219Z,9.18
2022-11-05T10:02:53.737Z,9.22
2022-11-05T10:05:22.059Z,9.25
2022-11-05T10:07:53.025Z,9.28
2022-11-05T10:10:43.175Z,9.31
2022-11-05T10:13:52.328Z,9.41
2022-11-05T10:16:56.804Z,9.49
2022-11-05T10:19:27.186Z,9.54
2022-11-05T10:22:16.433Z,9.61
2022-11-05T10:24:47.165Z,9.65
2022-11-05T10:27:33.957Z,9.71
2022-11-05T10:30:00.606Z,9.78
2022-11-05T10:32:34.668Z,9.83
2022-11-05T10:35:04.044Z,9.86
2022-11-05T10:37:32.498Z,9.93
2022-11-05T10:40:00.887Z,9.93
2022-11-05T10:43:13.659Z,9.93
2022-11-05T10:45:55.411Z,9.94
2022-11-05T10:49:00.858Z,9.97
2022-11-05T10:51:27.865Z,9.98
2022-11-05T10:54:02.249Z,9.99
2022-11-05T10:56:32.822Z,9.99
2022-11-05T10:59:00.907Z,10.02
2022-11-05T11:01:30.483Z,10.01
2022-11-05T11:04:16.749Z,10.02
2022-11-05T11:06:54.083Z,9.99
2022-11-05T11:09:27.258Z,9.98
2022-11-05T11:12:04.841Z,9.99
2022-11-05T11:14:36.411Z,9.98
2022-11-05T11:17:32.627Z,9.95
2022-11-05T11:20:25.178Z,9.97
2022-11-05T11:23:02.415Z,9.96
2022-11-05T11:25:40.595Z,9.96
2022-11-05T11:28:47.211Z,9.98
2022-11-05T11:31:27.164Z,9.98
2022-11-05T11:34:05.271Z,9.99
2022-11-05T11:36:56.046Z,10.01
2022-11-05T11:39:28.553Z,10.02
2022-11-05T11:42:00.182Z,10.02
2022-11-05T11:44:30.763Z,10.04
2022-11-05T11:47:02.014Z,10.09
2022-11-05T11:49:46.831Z,10.11
2022-11-05T11:52:18.601Z,10.15
2022-11-05T11:54:45.294Z,10.15
2022-11-05T11:58:04.503Z,10.16
2022-11-05T12:00:32.856Z,10.15
2022-11-05T12:03:10.061Z,10.15
2022-11-05T12:05:43.608Z,10.15
2022-11-05T12:08:45.275Z,10.15
2022-11-05T12:11:25.475Z,10.16
2022-11-05T12:14:00.198Z,10.15
2022-11-05T12:16:40.264Z,10.18
2022-11-05T12:19:22.487Z,10.20
2022-11-05T12:21:53.107Z,10.22
2022-11-05T12:25:02.367Z,10.25
2022-11-05T12:27:42.612Z,10.30
2022-11-05T12:30:18.594Z,10.34
2022-11-05T12:33:22.040Z,10.40
2022-11-05T12:36:15.494Z,10.46
2022-11-05T12:38:54.037Z,10.51
2022-11-05T12:41:33.213Z,10.56
2022-11-05T12:44:32.291Z,10.59
2022-11-05T12:47:06.407Z,10.61
2022-11-05T12:49:47.465Z,10.64
2022-11-05T12:52:33.132Z,10.63
2022-11-05T12:55:05.528Z,10.63
2022-11-05T12:57:36.192Z,10.61
2022-11-05T13:00:19.172Z,10.62
2022-11-05T13:02:58.086Z,10.62
2022-11-05T13:05:34.579Z,10.61
2022-11-05T13:08:35.865Z,10.61
2022-11-05T13:11:27.422Z,10.61
2022-11-05T13:14:20.503Z,10.58
2022-11-05T13:16:55.502Z,10.58
2022-11-05T13:19:30.093Z,10.58
2022-11-05T13:22:12.239Z,10.59
2022-11-05T13:25:02.568Z,10.58
2022-11-05T13:27:48.102Z,10.58
2022-11-05T13:30:41.609Z,10.57
2022-11-05T13:33:37.831Z,10.60
2022-11-05T13:36:42.726Z,10.60
2022-11-05T13:39:17.974Z,10.60
2022-11-05T13:42:15.888Z,10.59
2022-11-05T13:44:45.129Z,10.59
2022-11-05T13:47:19.514Z,10.62
2022-11-05T13:50:02.920Z,10.65
2022-11-05T13:52:56.677Z,10.67
2022-11-05T13:55:38.303Z,10.69
2022-11-05T13:58:33.722Z,10.68
2022-11-05T14:01:16.600Z,10.67
2022-11-05T14:03:53.047Z,10.65
2022-11-05T14:06:27.005Z,10.62
2022-11-05T14:08:58.306Z,10.60
2022-11-05T14:11:34.883Z,10.57
2022-11-05T14:14:04.295Z,10.56
2022-11-05T14:16:50.698Z,10.54
2022-11-05T14:19:20.151Z,10.55
2022-11-05T14:21:51.069Z,10.53
2022-11-05T14:24:23.464Z,10.52
2022-11-05T14:27:02.126Z,10.49
2022-11-05T14:29:46.156Z,10.48
2022-11-05T14:32:18.798Z,10.47
2022-11-05T14:35:23.758Z,10.43
2022-11-05T14:37:57.861Z,10.39
2022-11-05T14:40:31.881Z,10.37
2022-11-05T14:43:04.602Z,10.35
2022-11-05T14:45:35.238Z,10.32
2022-11-05T14:48:05.286Z,10.27
2022-11-05T14:50:40.614Z,10.21
2022-11-05T14:53:25.977Z,10.21
2022-11-05T14:56:10.832Z,10.17
2022-11-05T14:58:39.895Z,10.17
2022-11-05T15:01:32.120Z,10.17
2022-11-05T15:04:17.525Z,10.17
2022-11-05T15:07:02.182Z,10.18
2022-11-05T15:09:55.753Z,10.17
2022-11-05T15:12:42.095Z,10.16
2022-11-05T15:15:28.854Z,10.18
2022-11-05T15:18:18.832Z,10.24
2022-11-05T15:20:56.515Z,10.24
2022-11-05T15:23:26.003Z,10.26
2022-11-05T15:26:33.787Z,10.23
2022-11-05T15:29:01.402Z,10.19
2022-11-05T15:31:36.088Z,10.17
2022-11-05T15:34:14.575Z,10.17
2022-11-05T15:36:47.626Z,10.18
2022-11-05T15:39:29.902Z,10.16
2022-11-05T20:40:03.850Z,9.56
2022-11-05T20:42:30.232Z,9.57
2022-11-05T20:44:56.566Z,9.57
2022-11-05T20:47:23.226Z,9.56
2022-11-05T20:49:49.580Z,9.58
2022-11-05T20:52:17.179Z,9.58
2022-11-05T20:54:44.115Z,9.61
2022-11-05T20:57:10.467Z,9.60
2022-11-05T20:59:36.819Z,9.61
2022-11-05T21:02:03.785Z,9.60
2022-11-05T21:04:30.473Z,9.60
2022-11-05T21:06:56.839Z,9.58
2022-11-05T21:09:23.293Z,9.58
2022-11-05T21:12:08.420Z,9.57
2022-11-05T21:14:34.906Z,9.56
2022-11-05T21:17:01.300Z,9.56
2022-11-05T21:19:29.374Z,9.56
2022-11-05T21:21:55.743Z,9.54
2022-11-05T21:24:22.132Z,9.53
2022-11-05T21:26:49.977Z,9.54
2022-11-05T21:29:17.108Z,9.54
2022-11-05T21:31:44.045Z,9.53
2022-11-05T21:34:10.418Z,9.52
2022-11-05T21:36:36.866Z,9.53
2022-11-05T21:39:06.626Z,9.52
2022-11-05T21:41:35.529Z,9.54
2022-11-05T21:44:04.166Z,9.55
2022-11-05T21:46:30.834Z,9.55
2022-11-05T21:48:57.339Z,9.54
2022-11-05T21:51:42.316Z,9.54
2022-11-05T21:54:29.087Z,9.56
2022-11-05T21:57:14.394Z,9.57
2022-11-05T21:59:51.608Z,9.59
2022-11-05T22:02:21.089Z,9.59
2022-11-05T22:04:51.175Z,9.59
2022-11-05T22:07:22.714Z,9.61
2022-11-05T22:09:49.513Z,9.62
2022-11-05T22:12:16.069Z,9.61
2022-11-05T22:14:43.142Z,9.60
2022-11-05T22:17:10.790Z,9.63
2022-11-05T22:19:37.601Z,9.61
2022-11-05T22:22:05.380Z,9.61
2022-11-05T22:24:32.074Z,9.61
2022-11-05T22:27:00.086Z,9.61
2022-11-05T22:29:27.426Z,9.58
2022-11-05T22:31:54.204Z,9.58
2022-11-05T22:34:21.067Z,9.60
2022-11-05T22:36:47.462Z,9.60
2022-11-05T22:39:13.952Z,9.59
2022-11-05T22:41:41.018Z,9.61
2022-11-05T22:44:07.557Z,9.62
2022-11-05T22:46:33.933Z,9.63
2022-11-05T22:49:00.388Z,9.62
2022-11-05T22:51:32.365Z,9.60
2022-11-05T22:53:59.851Z,9.62
2022-11-05T22:56:30.683Z,9.60
2022-11-05T22:58:57.255Z,9.61
2022-11-05T23:01:25.240Z,9.61
2022-11-05T23:03:53.973Z,9.61
2022-11-05T23:06:48.066Z,9.60
2022-11-05T23:09:45.120Z,9.63
2022-11-05T23:12:25.676Z,9.65
2022-11-05T23:14:53.763Z,9.66
2022-11-05T23:17:38.597Z,9.64
2022-11-05T23:20:25.865Z,9.64
2022-11-05T23:23:10.519Z,9.65
2022-11-05T23:25:37.082Z,9.64
2022-11-05T23:28:07.346Z,9.61
2022-11-05T23:30:33.862Z,9.58
2022-11-05T23:33:00.212Z,9.60
2022-11-05T23:35:45.285Z,9.60
2022-11-05T23:38:30.228Z,9.56
2022-11-05T23:41:22.599Z,9.58
2022-11-05T23:44:07.846Z,9.58
2022-11-05T23:46:53.072Z,9.54
2022-11-05T23:49:19.626Z,9.55
2022-11-05T23:51:46.134Z,9.54
2022-11-05T23:54:13.822Z,9.50
2022-11-05T23:56:40.227Z,9.50
2022-11-05T23:59:07.015Z,9.50
